sensor_id;sensor_type;location;lat;lon;timestamp;pressure;altitude;pressure_sealevel;temperature;humidity
83716;BME280;73698;51.138;6.950;2024-03-23T00:53:59;100485.63;;;6.56;92.00
83716;BME280;73698;51.138;6.950;2024-03-23T00:56:24;100489.50;;;6.51;91.54
83716;BME280;73698;51.138;6.950;2024-03-23T00:58:50;100479.25;;;6.43;92.20
83716;BME280;73698;51.138;6.950;2024-03-23T01:01:15;100485.59;;;6.41;91.69
83716;BME280;73698;51.138;6.950;2024-03-23T01:03:41;100486.66;;;6.38;92.08
83716;BME280;73698;51.138;6.950;2024-03-23T01:06:06;100487.81;;;6.32;91.57
83716;BME280;73698;51.138;6.950;2024-03-23T01:08:32;100485.41;;;6.28;91.41
83716;BME280;73698;51.138;6.950;2024-03-23T01:11:01;100477.56;;;6.25;92.02
83716;BME280;73698;51.138;6.950;2024-03-23T01:13:28;100471.59;;;6.20;91.19
83716;BME280;73698;51.138;6.950;2024-03-23T01:15:55;100461.94;;;6.17;91.54
83716;BME280;73698;51.138;6.950;2024-03-23T01:18:22;100463.91;;;6.14;91.15
83716;BME280;73698;51.138;6.950;2024-03-23T01:20:48;100453.22;;;6.14;92.29
83716;BME280;73698;51.138;6.950;2024-03-23T01:23:14;100454.34;;;6.09;91.75
83716;BME280;73698;51.138;6.950;2024-03-23T01:25:39;100450.03;;;6.07;91.13
83716;BME280;73698;51.138;6.950;2024-03-23T01:28:05;100466.22;;;6.04;91.48
83716;BME280;73698;51.138;6.950;2024-03-23T01:30:34;100471.63;;;6.02;91.61
83716;BME280;73698;51.138;6.950;2024-03-23T01:33:00;100462.84;;;6.00;91.38
83716;BME280;73698;51.138;6.950;2024-03-23T01:35:26;100460.19;;;6.00;91.80
83716;BME280;73698;51.138;6.950;2024-03-23T01:37:52;100456.66;;;6.00;92.36
83716;BME280;73698;51.138;6.950;2024-03-23T01:40:17;100449.56;;;5.99;92.17
83716;BME280;73698;51.138;6.950;2024-03-23T01:42:43;100464.72;;;5.98;92.46
83716;BME280;73698;51.138;6.950;2024-03-23T01:45:19;100468.25;;;5.99;92.38
83716;BME280;73698;51.138;6.950;2024-03-23T01:47:45;100459.38;;;5.98;92.35
83716;BME280;73698;51.138;6.950;2024-03-23T01:50:11;100453.09;;;5.99;92.18
83716;BME280;73698;51.138;6.950;2024-03-23T01:52:36;100461.28;;;5.96;92.04
83716;BME280;73698;51.138;6.950;2024-03-23T01:55:02;100474.53;;;5.98;92.19
83716;BME280;73698;51.138;6.950;2024-03-23T01:57:27;100471.88;;;5.98;92.94
83716;BME280;73698;51.138;6.950;2024-03-23T01:59:53;100470.06;;;5.98;92.86
83716;BME280;73698;51.138;6.950;2024-03-23T02:02:18;100466.44;;;5.99;92.37
83716;BME280;73698;51.138;6.950;2024-03-23T02:04:45;100473.53;;;6.00;92.91
83716;BME280;73698;51.138;6.950;2024-03-23T02:07:10;100483.56;;;5.95;92.05
83716;BME280;73698;51.138;6.950;2024-03-23T02:09:38;100473.06;;;5.92;91.77
83716;BME280;73698;51.138;6.950;2024-03-23T02:12:12;100464.22;;;5.90;91.17
83716;BME280;73698;51.138;6.950;2024-03-23T02:14:37;100443.38;;;5.81;90.11
83716;BME280;73698;51.138;6.950;2024-03-23T02:17:02;100454.28;;;5.76;89.81
83716;BME280;73698;51.138;6.950;2024-03-23T02:19:28;100452.91;;;5.69;90.14
83716;BME280;73698;51.138;6.950;2024-03-23T02:21:53;100446.75;;;5.67;90.36
83716;BME280;73698;51.138;6.950;2024-03-23T02:24:19;100452.41;;;5.61;90.66
83716;BME280;73698;51.138;6.950;2024-03-23T02:26:44;100452.63;;;5.56;89.47
83716;BME280;73698;51.138;6.950;2024-03-23T02:29:10;100444.13;;;5.50;89.73
83716;BME280;73698;51.138;6.950;2024-03-23T02:31:35;100440.66;;;5.48;90.28
83716;BME280;73698;51.138;6.950;2024-03-23T02:34:01;100439.06;;;5.44;90.29
83716;BME280;73698;51.138;6.950;2024-03-23T02:36:26;100438.22;;;5.43;90.99
83716;BME280;73698;51.138;6.950;2024-03-23T02:38:52;100439.22;;;5.41;90.07
83716;BME280;73698;51.138;6.950;2024-03-23T02:41:17;100441.13;;;5.38;90.56
83716;BME280;73698;51.138;6.950;2024-03-23T02:43:49;100448.31;;;5.36;91.41
83716;BME280;73698;51.138;6.950;2024-03-23T02:46:15;100459.00;;;5.36;91.41
83716;BME280;73698;51.138;6.950;2024-03-23T02:48:40;100456.31;;;5.36;91.95
83716;BME280;73698;51.138;6.950;2024-03-23T02:51:05;100461.56;;;5.38;91.20
83716;BME280;73698;51.138;6.950;2024-03-23T02:53:31;100453.41;;;5.41;92.65
83716;BME280;73698;51.138;6.950;2024-03-23T02:55:58;100458.69;;;5.43;92.42
83716;BME280;73698;51.138;6.950;2024-03-23T02:58:23;100452.31;;;5.45;93.39
83716;BME280;73698;51.138;6.950;2024-03-23T03:00:48;100453.28;;;5.44;93.46
83716;BME280;73698;51.138;6.950;2024-03-23T03:03:14;100455.84;;;5.46;93.43
83716;BME280;73698;51.138;6.950;2024-03-23T03:05:39;100455.84;;;5.46;93.73
83716;BME280;73698;51.138;6.950;2024-03-23T03:08:05;100452.31;;;5.45;93.75
83716;BME280;73698;51.138;6.950;2024-03-23T03:10:30;100441.66;;;5.45;92.56
83716;BME280;73698;51.138;6.950;2024-03-23T03:12:57;100449.66;;;5.45;93.36
83716;BME280;73698;51.138;6.950;2024-03-23T03:15:23;100451.47;;;5.45;93.26
83716;BME280;73698;51.138;6.950;2024-03-23T03:17:48;100449.84;;;5.42;92.91
83716;BME280;73698;51.138;6.950;2024-03-23T03:20:13;100435.69;;;5.40;92.51
83716;BME280;73698;51.138;6.950;2024-03-23T03:22:40;100423.22;;;5.41;93.29
83716;BME280;73698;51.138;6.950;2024-03-23T03:25:06;100416.19;;;5.39;93.18
83716;BME280;73698;51.138;6.950;2024-03-23T03:27:32;100429.56;;;5.38;93.13
83716;BME280;73698;51.138;6.950;2024-03-23T03:29:58;100438.53;;;5.37;93.63
83716;BME280;73698;51.138;6.950;2024-03-23T03:32:24;100439.47;;;5.36;92.90
83716;BME280;73698;51.138;6.950;2024-03-23T03:34:49;100429.56;;;5.38;93.37
83716;BME280;73698;51.138;6.950;2024-03-23T03:37:15;100429.56;;;5.38;92.78
83716;BME280;73698;51.138;6.950;2024-03-23T03:39:40;100440.22;;;5.38;93.78
83716;BME280;73698;51.138;6.950;2024-03-23T03:42:06;100443.78;;;5.38;93.10
83716;BME280;73698;51.138;6.950;2024-03-23T03:44:33;100457.03;;;5.40;93.34
83716;BME280;73698;51.138;6.950;2024-03-23T03:46:58;100457.03;;;5.40;93.18
83716;BME280;73698;51.138;6.950;2024-03-23T03:49:23;100445.50;;;5.39;93.05
83716;BME280;73698;51.138;6.950;2024-03-23T03:51:49;100436.81;;;5.36;92.97
83716;BME280;73698;51.138;6.950;2024-03-23T03:54:14;100445.66;;;5.36;92.72
83716;BME280;73698;51.138;6.950;2024-03-23T03:56:39;100443.84;;;5.37;93.50
83716;BME280;73698;51.138;6.950;2024-03-23T03:59:05;100449.97;;;5.39;93.81
83716;BME280;73698;51.138;6.950;2024-03-23T04:01:30;100441.97;;;5.39;93.53
83716;BME280;73698;51.138;6.950;2024-03-23T04:03:56;100439.31;;;5.39;94.35
83716;BME280;73698;51.138;6.950;2024-03-23T04:06:21;100437.41;;;5.41;94.06
83716;BME280;73698;51.138;6.950;2024-03-23T04:08:46;100436.56;;;5.41;94.29
83716;BME280;73698;51.138;6.950;2024-03-23T04:11:12;100444.50;;;5.42;93.67
83716;BME280;73698;51.138;6.950;2024-03-23T04:13:37;100442.69;;;5.43;94.13
83716;BME280;73698;51.138;6.950;2024-03-23T04:16:03;100448.03;;;5.43;94.77
83716;BME280;73698;51.138;6.950;2024-03-23T04:18:28;100450.59;;;5.44;94.76
83716;BME280;73698;51.138;6.950;2024-03-23T04:20:54;100447.09;;;5.44;93.88
83716;BME280;73698;51.138;6.950;2024-03-23T04:23:19;100440.88;;;5.43;94.11
83716;BME280;73698;51.138;6.950;2024-03-23T04:25:46;100438.22;;;5.43;93.72
83716;BME280;73698;51.138;6.950;2024-03-23T04:28:11;100440.88;;;5.43;94.17
83716;BME280;73698;51.138;6.950;2024-03-23T04:30:37;100436.56;;;5.41;93.35
83716;BME280;73698;51.138;6.950;2024-03-23T04:33:02;100436.66;;;5.39;93.87
83716;BME280;73698;51.138;6.950;2024-03-23T04:35:27;100432.25;;;5.38;93.83
83716;BME280;73698;51.138;6.950;2024-03-23T04:37:53;100440.31;;;5.36;94.04
83716;BME280;73698;51.138;6.950;2024-03-23T04:40:19;100437.75;;;5.35;94.25
83716;BME280;73698;51.138;6.950;2024-03-23T04:42:45;100440.22;;;5.38;94.46
83716;BME280;73698;51.138;6.950;2024-03-23T04:45:10;100446.50;;;5.37;93.94
83716;BME280;73698;51.138;6.950;2024-03-23T04:47:38;100445.75;;;5.35;93.65
83716;BME280;73698;51.138;6.950;2024-03-23T04:50:04;100450.22;;;5.34;93.68
83716;BME280;73698;51.138;6.950;2024-03-23T04:52:30;100453.66;;;5.36;94.81
83716;BME280;73698;51.138;6.950;2024-03-23T04:54:56;100458.91;;;5.38;94.18
83716;BME280;73698;51.138;6.950;2024-03-23T04:57:21;100448.22;;;5.38;93.73
83716;BME280;73698;51.138;6.950;2024-03-23T04:59:47;100447.31;;;5.39;93.68
83716;BME280;73698;51.138;6.950;2024-03-23T05:02:13;100444.66;;;5.39;94.12
83716;BME280;73698;51.138;6.950;2024-03-23T05:04:39;100439.38;;;5.37;94.19
83716;BME280;73698;51.138;6.950;2024-03-23T05:07:05;100442.03;;;5.37;94.27
83716;BME280;73698;51.138;6.950;2024-03-23T05:09:31;100441.19;;;5.37;94.13
83716;BME280;73698;51.138;6.950;2024-03-23T05:11:58;100436.81;;;5.36;94.48
83716;BME280;73698;51.138;6.950;2024-03-23T05:14:23;100438.63;;;5.35;94.21
83716;BME280;73698;51.138;6.950;2024-03-23T05:16:48;100441.34;;;5.34;93.78
83716;BME280;73698;51.138;6.950;2024-03-23T05:19:14;100448.41;;;5.35;94.62
83716;BME280;73698;51.138;6.950;2024-03-23T05:21:39;100448.31;;;5.36;93.76
83716;BME280;73698;51.138;6.950;2024-03-23T05:24:05;100456.31;;;5.36;94.30
83716;BME280;73698;51.138;6.950;2024-03-23T05:26:30;100462.50;;;5.37;93.80
83716;BME280;73698;51.138;6.950;2024-03-23T05:28:56;100466.03;;;5.37;93.89
83716;BME280;73698;51.138;6.950;2024-03-23T05:31:25;100467.84;;;5.37;94.13
83716;BME280;73698;51.138;6.950;2024-03-23T05:33:51;100458.91;;;5.38;94.44
83716;BME280;73698;51.138;6.950;2024-03-23T05:36:17;100465.28;;;5.35;94.11
83716;BME280;73698;51.138;6.950;2024-03-23T05:38:43;100465.19;;;5.37;94.25
83716;BME280;73698;51.138;6.950;2024-03-23T05:41:08;100452.72;;;5.37;93.38
83716;BME280;73698;51.138;6.950;2024-03-23T05:43:34;100450.13;;;5.36;93.11
83716;BME280;73698;51.138;6.950;2024-03-23T05:46:00;100447.56;;;5.34;93.58
83716;BME280;73698;51.138;6.950;2024-03-23T05:48:27;100447.47;;;5.36;93.32
83716;BME280;73698;51.138;6.950;2024-03-23T05:50:53;100458.22;;;5.34;93.12
83716;BME280;73698;51.138;6.950;2024-03-23T05:53:19;100457.31;;;5.34;93.60
83716;BME280;73698;51.138;6.950;2024-03-23T05:55:48;100456.41;;;5.35;93.52
83716;BME280;73698;51.138;6.950;2024-03-23T05:58:17;100459.84;;;5.37;94.22
83716;BME280;73698;51.138;6.950;2024-03-23T06:00:43;100468.72;;;5.37;93.97
83716;BME280;73698;51.138;6.950;2024-03-23T06:03:09;100477.56;;;5.38;93.29
83716;BME280;73698;51.138;6.950;2024-03-23T06:05:37;100471.31;;;5.39;93.96
83716;BME280;73698;51.138;6.950;2024-03-23T06:08:03;100474.84;;;5.39;94.13
83716;BME280;73698;51.138;6.950;2024-03-23T06:10:29;100465.31;;;5.34;91.80
83716;BME280;73698;51.138;6.950;2024-03-23T06:12:54;100473.28;;;5.35;93.14
83716;BME280;73698;51.138;6.950;2024-03-23T06:15:20;100475.84;;;5.37;93.33
83716;BME280;73698;51.138;6.950;2024-03-23T06:17:47;100481.97;;;5.39;93.36
83716;BME280;73698;51.138;6.950;2024-03-23T06:20:13;100483.59;;;5.42;93.33
83716;BME280;73698;51.138;6.950;2024-03-23T06:22:38;100472.19;;;5.39;93.47
83716;BME280;73698;51.138;6.950;2024-03-23T06:25:04;100474.91;;;5.38;93.20
83716;BME280;73698;51.138;6.950;2024-03-23T06:27:30;100475.94;;;5.35;93.73
83716;BME280;73698;51.138;6.950;2024-03-23T06:29:57;100475.06;;;5.35;93.45
83716;BME280;73698;51.138;6.950;2024-03-23T06:32:22;100478.75;;;5.32;93.73
83716;BME280;73698;51.138;6.950;2024-03-23T06:34:48;100476.22;;;5.29;93.44
83716;BME280;73698;51.138;6.950;2024-03-23T06:37:13;100473.66;;;5.28;92.95
83716;BME280;73698;51.138;6.950;2024-03-23T06:39:39;100472.00;;;5.25;92.82
83716;BME280;73698;51.138;6.950;2024-03-23T06:42:05;100470.28;;;5.24;93.67
83716;BME280;73698;51.138;6.950;2024-03-23T06:44:31;100483.75;;;5.21;93.43
83716;BME280;73698;51.138;6.950;2024-03-23T06:46:57;100488.31;;;5.19;93.76
83716;BME280;73698;51.138;6.950;2024-03-23T06:49:22;100486.50;;;5.20;94.00
83716;BME280;73698;51.138;6.950;2024-03-23T06:51:48;100497.16;;;5.20;94.08
83716;BME280;73698;51.138;6.950;2024-03-23T06:54:14;100492.75;;;5.19;93.78
83716;BME280;73698;51.138;6.950;2024-03-23T06:56:40;100490.88;;;5.21;94.37
83716;BME280;73698;51.138;6.950;2024-03-23T06:59:05;100488.06;;;5.24;93.41
83716;BME280;73698;51.138;6.950;2024-03-23T07:01:30;100491.38;;;5.29;93.94
83716;BME280;73698;51.138;6.950;2024-03-23T07:03:56;100490.97;;;5.36;93.99
83716;BME280;73698;51.138;6.950;2024-03-23T07:06:21;100493.25;;;5.44;93.31
83716;BME280;73698;51.138;6.950;2024-03-23T07:08:47;100490.22;;;5.52;93.82
83716;BME280;73698;51.138;6.950;2024-03-23T07:11:18;100499.72;;;5.57;93.09
83716;BME280;73698;51.138;6.950;2024-03-23T07:13:45;100493.91;;;5.67;93.21
83716;BME280;73698;51.138;6.950;2024-03-23T07:16:10;100496.19;;;5.74;92.56
83716;BME280;73698;51.138;6.950;2024-03-23T07:18:36;100497.50;;;5.83;92.18
83716;BME280;73698;51.138;6.950;2024-03-23T07:21:01;100495.31;;;5.91;92.74
83716;BME280;73698;51.138;6.950;2024-03-23T07:23:27;100496.84;;;5.97;91.88
83716;BME280;73698;51.138;6.950;2024-03-23T07:25:59;100490.16;;;6.05;92.45
83716;BME280;73698;51.138;6.950;2024-03-23T07:28:24;100500.53;;;6.11;91.31
83716;BME280;73698;51.138;6.950;2024-03-23T07:31:09;100496.34;;;6.23;91.55
83716;BME280;73698;51.138;6.950;2024-03-23T07:33:37;100503.75;;;6.34;91.12
83716;BME280;73698;51.138;6.950;2024-03-23T07:36:03;100502.47;;;6.41;90.49
83716;BME280;73698;51.138;6.950;2024-03-23T07:38:29;100501.03;;;6.51;90.61
83716;BME280;73698;51.138;6.950;2024-03-23T07:41:07;100503.13;;;6.62;90.02
83716;BME280;73698;51.138;6.950;2024-03-23T07:43:34;100506.00;;;6.75;89.75
83716;BME280;73698;51.138;6.950;2024-03-23T07:46:00;100500.13;;;6.84;89.18
83716;BME280;73698;51.138;6.950;2024-03-23T07:48:26;100503.16;;;6.94;89.59
83716;BME280;73698;51.138;6.950;2024-03-23T07:51:21;100508.06;;;7.01;88.90
83716;BME280;73698;51.138;6.950;2024-03-23T07:53:48;100497.47;;;7.16;88.58
83716;BME280;73698;51.138;6.950;2024-03-23T07:56:17;100503.91;;;7.27;88.75
83716;BME280;73698;51.138;6.950;2024-03-23T07:58:44;100500.53;;;7.40;87.13
83716;BME280;73698;51.138;6.950;2024-03-23T08:01:11;100501.22;;;7.43;86.29
83716;BME280;73698;51.138;6.950;2024-03-23T08:03:39;100502.31;;;7.55;86.73
83716;BME280;73698;51.138;6.950;2024-03-23T08:06:13;100505.28;;;7.65;86.01
83716;BME280;73698;51.138;6.950;2024-03-23T08:08:40;100498.56;;;7.73;85.63
83716;BME280;73698;51.138;6.950;2024-03-23T08:11:06;100500.16;;;7.62;83.62
83716;BME280;73698;51.138;6.950;2024-03-23T08:13:32;100500.84;;;7.65;84.41
83716;BME280;73698;51.138;6.950;2024-03-23T08:16:02;100494.69;;;7.63;84.47
83716;BME280;73698;51.138;6.950;2024-03-23T08:18:28;100496.56;;;7.77;84.84
83716;BME280;73698;51.138;6.950;2024-03-23T08:20:57;100498.50;;;7.89;84.59
83716;BME280;73698;51.138;6.950;2024-03-23T08:23:26;100504.53;;;8.07;83.83
83716;BME280;73698;51.138;6.950;2024-03-23T08:25:52;100503.53;;;8.24;81.06
83716;BME280;73698;51.138;6.950;2024-03-23T08:28:22;100492.38;;;8.46;82.63
83716;BME280;73698;51.138;6.950;2024-03-23T08:30:47;100496.13;;;8.58;80.97
83716;BME280;73698;51.138;6.950;2024-03-23T08:33:14;100496.69;;;8.63;80.61
83716;BME280;73698;51.138;6.950;2024-03-23T08:35:41;100503.06;;;8.74;80.65
83716;BME280;73698;51.138;6.950;2024-03-23T08:38:06;100501.91;;;8.78;77.59
83716;BME280;73698;51.138;6.950;2024-03-23T08:40:32;100504.72;;;8.77;77.74
83716;BME280;73698;51.138;6.950;2024-03-23T08:42:57;100492.91;;;8.94;76.58
83716;BME280;73698;51.138;6.950;2024-03-23T08:45:24;100499.53;;;8.88;74.44
83716;BME280;73698;51.138;6.950;2024-03-23T08:47:49;100502.69;;;8.80;77.27
83716;BME280;73698;51.138;6.950;2024-03-23T08:50:15;100505.09;;;8.71;76.27
83716;BME280;73698;51.138;6.950;2024-03-23T08:52:40;100498.13;;;8.54;76.08
83716;BME280;73698;51.138;6.950;2024-03-23T08:55:06;100505.31;;;8.53;74.54
83716;BME280;73698;51.138;6.950;2024-03-23T08:57:32;100510.75;;;8.52;75.51
83716;BME280;73698;51.138;6.950;2024-03-23T08:59:57;100501.47;;;8.58;75.28
83716;BME280;73698;51.138;6.950;2024-03-23T09:02:23;100499.34;;;8.63;74.03
83716;BME280;73698;51.138;6.950;2024-03-23T09:04:48;100500.69;;;8.70;74.29
83716;BME280;73698;51.138;6.950;2024-03-23T09:07:14;100507.78;;;8.71;74.43
83716;BME280;73698;51.138;6.950;2024-03-23T09:09:39;100498.09;;;8.68;72.15
83716;BME280;73698;51.138;6.950;2024-03-23T09:12:05;100505.94;;;8.71;72.38
83716;BME280;73698;51.138;6.950;2024-03-23T09:14:31;100500.59;;;8.71;72.92
83716;BME280;73698;51.138;6.950;2024-03-23T09:16:56;100507.69;;;8.58;72.44
83716;BME280;73698;51.138;6.950;2024-03-23T09:19:22;100507.28;;;8.36;72.06
83716;BME280;73698;51.138;6.950;2024-03-23T09:21:47;100512.53;;;8.23;71.69
83716;BME280;73698;51.138;6.950;2024-03-23T09:24:14;100507.94;;;8.25;72.82
83716;BME280;73698;51.138;6.950;2024-03-23T09:26:39;100501.25;;;8.32;73.64
83716;BME280;73698;51.138;6.950;2024-03-23T09:29:05;100520.03;;;8.61;74.24
83716;BME280;73698;51.138;6.950;2024-03-23T09:31:30;100511.91;;;8.76;73.72
83716;BME280;73698;51.138;6.950;2024-03-23T09:33:58;100506.59;;;8.89;73.78
83716;BME280;73698;51.138;6.950;2024-03-23T09:36:23;100497.38;;;9.08;72.51
83716;BME280;73698;51.138;6.950;2024-03-23T09:38:48;100500.78;;;9.24;71.21
83716;BME280;73698;51.138;6.950;2024-03-23T09:41:14;100493.84;;;9.34;69.06
83716;BME280;73698;51.138;6.950;2024-03-23T09:43:40;100502.66;;;9.36;68.65
83716;BME280;73698;51.138;6.950;2024-03-23T09:46:05;100491.09;;;9.48;69.70
83716;BME280;73698;51.138;6.950;2024-03-23T09:48:31;100494.19;;;9.69;69.85
83716;BME280;73698;51.138;6.950;2024-03-23T09:50:57;100484.63;;;9.91;70.68
83716;BME280;73698;51.138;6.950;2024-03-23T09:53:22;100486.91;;;10.10;67.03
83716;BME280;73698;51.138;6.950;2024-03-23T09:55:48;100486.44;;;10.30;68.05
83716;BME280;73698;51.138;6.950;2024-03-23T09:58:15;100480.91;;;10.44;67.08
83716;BME280;73698;51.138;6.950;2024-03-23T10:00:41;100477.25;;;10.58;66.70
83716;BME280;73698;51.138;6.950;2024-03-23T10:03:06;100481.84;;;10.82;67.79
83716;BME280;73698;51.138;6.950;2024-03-23T10:05:32;100470.41;;;10.91;64.80
83716;BME280;73698;51.138;6.950;2024-03-23T10:08:17;100465.09;;;11.02;63.56
83716;BME280;73698;51.138;6.950;2024-03-23T10:10:44;100476.78;;;11.14;64.60
83716;BME280;73698;51.138;6.950;2024-03-23T10:13:11;100474.16;;;11.01;61.47
83716;BME280;73698;51.138;6.950;2024-03-23T10:15:39;100471.25;;;10.55;60.04
83716;BME280;73698;51.138;6.950;2024-03-23T10:18:20;100473.94;;;10.29;59.98
83716;BME280;73698;51.138;6.950;2024-03-23T10:21:11;100465.66;;;10.19;60.37
83716;BME280;73698;51.138;6.950;2024-03-23T10:23:38;100471.28;;;10.42;61.16
83716;BME280;73698;51.138;6.950;2024-03-23T10:28:59;100478.03;;;10.97;60.54
83716;BME280;73698;51.138;6.950;2024-03-23T10:31:30;100469.19;;;10.95;59.50
83716;BME280;73698;51.138;6.950;2024-03-23T10:33:56;100465.66;;;10.58;57.24
83716;BME280;73698;51.138;6.950;2024-03-23T10:36:22;100465.66;;;10.19;59.77
83716;BME280;73698;51.138;6.950;2024-03-23T10:38:50;100473.91;;;10.16;61.08
83716;BME280;73698;51.138;6.950;2024-03-23T10:41:16;100475.44;;;10.08;61.29
83716;BME280;73698;51.138;6.950;2024-03-23T10:43:43;100479.38;;;10.02;60.63
83716;BME280;73698;51.138;6.950;2024-03-23T10:46:10;100482.50;;;10.09;61.85
83716;BME280;73698;51.138;6.950;2024-03-23T10:48:35;100485.97;;;10.49;62.60
83716;BME280;73698;51.138;6.950;2024-03-23T10:51:01;100491.19;;;10.76;62.26
83716;BME280;73698;51.138;6.950;2024-03-23T10:53:27;100510.16;;;10.49;57.34
83716;BME280;73698;51.138;6.950;2024-03-23T10:55:55;100530.38;;;9.76;56.02
83716;BME280;73698;51.138;6.950;2024-03-23T10:58:29;100537.97;;;9.16;58.09
83716;BME280;73698;51.138;6.950;2024-03-23T11:00:56;100532.66;;;8.59;62.25
83716;BME280;73698;51.138;6.950;2024-03-23T11:05:56;100547.63;;;8.32;63.23
83716;BME280;73698;51.138;6.950;2024-03-23T11:08:35;100551.13;;;8.04;62.39
83716;BME280;73698;51.138;6.950;2024-03-23T11:11:22;100575.56;;;7.68;70.38
83716;BME280;73698;51.138;6.950;2024-03-23T11:13:53;100577.13;;;7.56;71.49
83716;BME280;73698;51.138;6.950;2024-03-23T11:16:23;100580.69;;;7.25;69.84
83716;BME280;73698;51.138;6.950;2024-03-23T11:18:49;100561.78;;;6.81;71.46
83716;BME280;73698;51.138;6.950;2024-03-23T11:21:53;100548.91;;;6.72;69.96
83716;BME280;73698;51.138;6.950;2024-03-23T11:24:19;100539.22;;;6.53;74.08
83716;BME280;73698;51.138;6.950;2024-03-23T11:26:46;100535.78;;;6.67;73.97
83716;BME280;73698;51.138;6.950;2024-03-23T11:29:13;100525.28;;;6.80;73.24
83716;BME280;73698;51.138;6.950;2024-03-23T11:31:39;100522.88;;;6.91;72.77
83716;BME280;73698;51.138;6.950;2024-03-23T11:34:10;100523.31;;;6.99;73.06
83716;BME280;73698;51.138;6.950;2024-03-23T11:36:36;100518.59;;;7.04;72.34
83716;BME280;73698;51.138;6.950;2024-03-23T11:39:20;100512.22;;;7.23;72.53
83716;BME280;73698;51.138;6.950;2024-03-23T11:44:22;100498.34;;;7.62;73.11
83716;BME280;73698;51.138;6.950;2024-03-23T11:46:48;100508.31;;;7.74;68.79
83716;BME280;73698;51.138;6.950;2024-03-23T11:51:47;100505.22;;;8.11;71.45
83716;BME280;73698;51.138;6.950;2024-03-23T11:54:13;100493.38;;;8.29;73.05
83716;BME280;73698;51.138;6.950;2024-03-23T11:56:38;100488.94;;;8.44;70.84
83716;BME280;73698;51.138;6.950;2024-03-23T11:59:04;100490.28;;;8.51;67.88
83716;BME280;73698;51.138;6.950;2024-03-23T12:01:29;100488.53;;;8.64;70.11
83716;BME280;73698;51.138;6.950;2024-03-23T12:03:55;100491.19;;;8.78;69.76
83716;BME280;73698;51.138;6.950;2024-03-23T12:06:20;100497.28;;;8.95;67.42
83716;BME280;73698;51.138;6.950;2024-03-23T12:08:45;100499.94;;;9.09;67.09
83716;BME280;73698;51.138;6.950;2024-03-23T12:11:15;100481.94;;;9.38;66.07
83716;BME280;73698;51.138;6.950;2024-03-23T12:13:45;100491.34;;;9.58;63.99
83716;BME280;73698;51.138;6.950;2024-03-23T12:16:29;100526.75;;;9.50;60.55
83716;BME280;73698;51.138;6.950;2024-03-23T12:19:04;100563.78;;;7.87;64.76
83716;BME280;73698;51.138;6.950;2024-03-23T12:21:30;100540.56;;;6.11;69.83
83716;BME280;73698;51.138;6.950;2024-03-23T12:23:56;100547.41;;;5.46;72.42
83716;BME280;73698;51.138;6.950;2024-03-23T12:26:21;100537.63;;;5.28;74.54
83716;BME280;73698;51.138;6.950;2024-03-23T12:28:48;100536.06;;;5.24;77.00
83716;BME280;73698;51.138;6.950;2024-03-23T12:31:13;100536.53;;;5.32;76.62
83716;BME280;73698;51.138;6.950;2024-03-23T12:33:39;100542.91;;;5.47;77.67
83716;BME280;73698;51.138;6.950;2024-03-23T12:36:04;100554.03;;;5.74;78.41
83716;BME280;73698;51.138;6.950;2024-03-23T12:38:30;100553.97;;;5.93;80.08
83716;BME280;73698;51.138;6.950;2024-03-23T12:40:55;100536.31;;;6.07;78.96
83716;BME280;73698;51.138;6.950;2024-03-23T12:43:21;100544.44;;;6.22;78.22
83716;BME280;73698;51.138;6.950;2024-03-23T12:45:49;100549.31;;;6.31;75.45
83716;BME280;73698;51.138;6.950;2024-03-23T12:48:15;100527.97;;;6.14;75.54
83716;BME280;73698;51.138;6.950;2024-03-23T12:50:41;100520.38;;;6.23;75.88
83716;BME280;73698;51.138;6.950;2024-03-23T12:53:06;100505.34;;;6.21;73.66
83716;BME280;73698;51.138;6.950;2024-03-23T12:55:34;100507.88;;;6.24;73.68
83716;BME280;73698;51.138;6.950;2024-03-23T12:58:00;100501.31;;;6.47;75.50
83716;BME280;73698;51.138;6.950;2024-03-23T13:00:25;100490.22;;;6.70;74.12
83716;BME280;73698;51.138;6.950;2024-03-23T13:02:51;100495.56;;;7.02;74.02
83716;BME280;73698;51.138;6.950;2024-03-23T13:05:16;100497.06;;;7.38;74.09
83716;BME280;73698;51.138;6.950;2024-03-23T13:07:41;100487.63;;;7.62;70.33
83716;BME280;73698;51.138;6.950;2024-03-23T13:10:07;100492.81;;;7.79;70.60
83716;BME280;73698;51.138;6.950;2024-03-23T13:12:33;100486.75;;;8.06;72.65
83716;BME280;73698;51.138;6.950;2024-03-23T13:14:59;100491.34;;;8.18;70.57
83716;BME280;73698;51.138;6.950;2024-03-23T13:17:26;100486.13;;;8.31;70.21
83716;BME280;73698;51.138;6.950;2024-03-23T13:19:52;100474.78;;;8.42;70.75
83716;BME280;73698;51.138;6.950;2024-03-23T13:22:18;100476.84;;;8.37;67.23
83716;BME280;73698;51.138;6.950;2024-03-23T13:24:43;100492.94;;;8.51;69.15
83716;BME280;73698;51.138;6.950;2024-03-23T13:27:09;100480.31;;;8.53;65.57
83716;BME280;73698;51.138;6.950;2024-03-23T13:29:36;100485.41;;;8.58;67.95
83716;BME280;73698;51.138;6.950;2024-03-23T13:32:03;100495.16;;;8.73;64.96
83716;BME280;73698;51.138;6.950;2024-03-23T13:34:28;100500.22;;;8.63;64.09
83716;BME280;73698;51.138;6.950;2024-03-23T13:36:54;100498.09;;;8.68;63.69
83716;BME280;73698;51.138;6.950;2024-03-23T13:39:21;100496.13;;;8.58;62.79
83716;BME280;73698;51.138;6.950;2024-03-23T13:41:46;100479.69;;;8.33;66.37
83716;BME280;73698;51.138;6.950;2024-03-23T13:44:13;100483.16;;;8.21;66.27
83716;BME280;73698;51.138;6.950;2024-03-23T13:46:40;100479.50;;;8.08;66.74
83716;BME280;73698;51.138;6.950;2024-03-23T13:49:25;100473.34;;;7.92;67.38
83716;BME280;73698;51.138;6.950;2024-03-23T13:51:50;100479.03;;;7.71;67.45
83716;BME280;73698;51.138;6.950;2024-03-23T13:54:16;100475.00;;;7.64;67.14
83716;BME280;73698;51.138;6.950;2024-03-23T13:56:41;100467.44;;;7.56;66.77
83716;BME280;73698;51.138;6.950;2024-03-23T13:59:06;100470.03;;;7.58;68.59
83716;BME280;73698;51.138;6.950;2024-03-23T14:01:32;100478.34;;;7.53;71.20